Time;durP1;ratioP1;P1;durP2;ratioP2;P2;SDS_P1;SDS_P2;PMS_P1;PMS_P2;Temp;Humidity;BMP_temperature;BMP_pressure;BME280_temperature;BME280_humidity;BME280_pressure;Samples;Min_cycle;Max_cycle;Signal;HPM_P1;HPM_P2
2023/02/13 00:01:18;;;;;;;12.60;6.70;;;;;;;-6.94;76.84;97470.81;106527;1276;25586;-66
2023/02/13 00:03:46;;;;;;;12.60;5.80;;;;;;;-6.88;76.86;97474.53;106460;1276;23209;-66
2023/02/13 00:06:15;;;;;;;14.80;6.20;;;;;;;-6.84;76.93;97474.51;106655;1276;24483;-66
2023/02/13 00:08:43;;;;;;;11.30;6.00;;;;;;;-6.76;77.21;97475.81;106638;1276;24298;-66
2023/02/13 00:11:11;;;;;;;13.70;6.00;;;;;;;-6.72;76.59;97473.22;106453;1276;22778;-67
2023/02/13 00:13:39;;;;;;;13.80;6.70;;;;;;;-6.82;76.06;97480.65;106671;1276;24233;-67
2023/02/13 00:16:09;;;;;;;12.90;6.40;;;;;;;-6.82;76.59;97481.64;106624;1254;25549;-66
2023/02/13 00:18:38;;;;;;;5.80;3.60;;;;;;;-6.76;76.61;97479.73;106421;1276;25492;-66
2023/02/13 00:21:11;;;;;;;12.10;5.70;;;;;;;-6.95;75.02;97476.41;106705;1276;24459;-68
2023/02/13 00:23:39;;;;;;;10.90;5.10;;;;;;;-7.19;75.50;97474.48;106475;1276;22913;-66
2023/02/13 00:26:11;;;;;;;9.20;4.90;;;;;;;-7.24;75.83;97473.56;106587;1276;22717;-66
2023/02/13 00:28:43;;;;;;;11.30;5.30;;;;;;;-7.39;75.54;97474.10;106630;1276;25624;-66
2023/02/13 00:31:17;;;;;;;13.20;6.10;;;;;;;-7.49;75.87;97467.34;106599;1276;22696;-67
2023/02/13 00:33:45;;;;;;;12.90;5.80;;;;;;;-7.54;76.37;97466.38;106500;1276;24135;-66
2023/02/13 00:36:19;;;;;;;13.20;6.40;;;;;;;-7.53;77.45;97464.59;106529;1276;22578;-66
2023/02/13 00:38:48;;;;;;;16.80;8.30;;;;;;;-7.54;77.71;97466.74;106397;1276;25480;-66
2023/02/13 00:41:16;;;;;;;15.10;7.80;;;;;;;-7.47;77.79;97463.35;106603;1260;25611;-66
2023/02/13 00:43:46;;;;;;;11.10;5.80;;;;;;;-7.44;77.36;97459.14;106625;1276;25623;-67
2023/02/13 00:46:16;;;;;;;11.80;6.00;;;;;;;-7.38;77.37;97461.16;106459;1265;23197;-66
2023/02/13 00:48:45;;;;;;;13.20;6.20;;;;;;;-7.29;77.48;97461.00;106531;1276;22708;-66
2023/02/13 00:51:13;;;;;;;11.10;5.40;;;;;;;-7.31;76.67;97457.11;106655;1276;23112;-66
2023/02/13 00:53:41;;;;;;;12.00;6.20;;;;;;;-7.35;76.49;97458.36;106590;1276;24250;-66
2023/02/13 00:56:09;;;;;;;12.00;5.30;;;;;;;-7.30;76.86;97456.86;106656;1276;22555;-67
2023/02/13 00:58:38;;;;;;;11.90;6.10;;;;;;;-7.39;76.10;97464.02;106440;1276;25478;-66
2023/02/13 01:01:06;;;;;;;19.10;8.40;;;;;;;-7.51;76.13;97458.09;106463;1276;22580;-66
2023/02/13 01:03:34;;;;;;;11.60;6.00;;;;;;;-7.65;76.03;97460.36;106378;1273;25566;-66
2023/02/13 01:06:03;;;;;;;11.90;5.10;;;;;;;-7.69;76.80;97458.40;106613;1276;22618;-66
2023/02/13 01:08:32;;;;;;;13.10;6.30;;;;;;;-7.60;77.17;97462.14;106506;1276;22696;-66
2023/02/13 01:11:00;;;;;;;16.20;8.50;;;;;;;-7.50;77.39;97458.89;106652;1276;24389;-66
2023/02/13 01:13:28;;;;;;;20.00;8.60;;;;;;;-7.40;77.35;97462.23;106586;1259;24982;-66
2023/02/13 01:15:56;;;;;;;10.60;5.10;;;;;;;-7.41;76.82;97460.82;106495;1276;22713;-66
2023/02/13 01:18:26;;;;;;;11.50;5.40;;;;;;;-7.36;77.20;97456.73;106749;1276;24053;-66
2023/02/13 01:21:06;;;;;;;10.60;5.40;;;;;;;-7.35;76.42;97457.48;106643;1276;25501;-66
2023/02/13 01:23:37;;;;;;;9.60;5.10;;;;;;;-7.50;75.88;97454.40;106627;1276;23066;-66
2023/02/13 01:26:07;;;;;;;12.30;5.80;;;;;;;-7.59;76.07;97450.61;106545;1276;25474;-66
2023/02/13 01:28:35;;;;;;;10.90;6.40;;;;;;;-7.59;76.56;97447.72;106539;1276;22691;-66
2023/02/13 01:31:04;;;;;;;12.80;6.60;;;;;;;-7.49;77.11;97451.36;106659;1259;24252;-66
2023/02/13 01:33:34;;;;;;;15.40;6.60;;;;;;;-7.40;77.07;97448.73;106650;1276;22583;-66
2023/02/13 01:36:11;;;;;;;12.90;6.20;;;;;;;-7.32;76.84;97446.58;106518;1276;25582;-66
2023/02/13 01:38:40;;;;;;;13.00;5.80;;;;;;;-7.41;75.74;97452.91;106663;1276;25722;-66
2023/02/13 01:41:09;;;;;;;9.30;5.20;;;;;;;-7.63;75.18;97454.72;106615;1276;24227;-66
2023/02/13 01:43:53;;;;;;;13.00;6.30;;;;;;;-7.80;75.77;97445.52;106481;1276;22738;-66
2023/02/13 01:46:30;;;;;;;10.60;5.10;;;;;;;-7.74;76.75;97443.94;106462;1276;25593;-67
2023/02/13 01:49:22;;;;;;;11.50;6.30;;;;;;;-7.67;76.61;97443.81;106576;1276;22586;-67
2023/02/13 01:51:54;;;;;;;10.90;6.40;;;;;;;-7.65;77.06;97445.67;106623;1266;22602;-67
2023/02/13 01:54:29;;;;;;;14.30;7.40;;;;;;;-7.66;76.99;97442.48;106586;1276;22686;-66
2023/02/13 01:57:07;;;;;;;14.60;5.50;;;;;;;-7.74;76.25;97442.20;106629;1276;24387;-67
2023/02/13 02:00:02;;;;;;;10.60;5.90;;;;;;;-7.94;75.76;97439.60;106635;1276;24332;-66
2023/02/13 02:02:54;;;;;;;10.10;5.10;;;;;;;-7.96;76.88;97431.91;106604;1276;22736;-66
2023/02/13 02:05:27;;;;;;;6.20;3.20;;;;;;;-7.89;76.91;97427.50;106611;1276;25385;-67
2023/02/13 02:07:59;;;;;;;12.30;5.40;;;;;;;-7.95;76.49;97427.77;106603;1276;22761;-67
2023/02/13 02:10:28;;;;;;;12.70;5.60;;;;;;;-7.98;76.63;97435.64;106518;1276;24283;-66
2023/02/13 02:13:06;;;;;;;7.80;4.50;;;;;;;-8.10;76.33;97444.23;106492;1276;24260;-67
2023/02/13 02:15:35;;;;;;;8.60;4.90;;;;;;;-8.09;77.03;97450.33;106471;1276;25548;-66
2023/02/13 02:18:12;;;;;;;7.30;4.10;;;;;;;-7.98;77.41;97456.47;106593;1275;22720;-66
2023/02/13 02:21:07;;;;;;;9.60;4.60;;;;;;;-7.86;77.55;97447.06;106584;1276;23669;-66
2023/02/13 02:24:00;;;;;;;8.00;3.80;;;;;;;-7.76;76.90;97454.55;106452;1276;23018;-66
2023/02/13 02:26:48;;;;;;;6.40;3.20;;;;;;;-7.91;75.78;97457.05;106678;1276;25372;-66
2023/02/13 02:29:31;;;;;;;8.90;3.70;;;;;;;-7.99;76.32;97457.30;106505;1276;25580;-66
2023/02/13 02:32:10;;;;;;;8.10;3.90;;;;;;;-7.93;76.76;97455.89;106617;1276;22583;-66
2023/02/13 02:34:50;;;;;;;7.50;3.80;;;;;;;-7.88;76.77;97451.85;106633;1276;25432;-67
2023/02/13 02:37:39;;;;;;;9.20;4.30;;;;;;;-7.93;75.87;97459.80;106523;1276;26859;-66
2023/02/13 02:40:22;;;;;;;6.60;3.40;;;;;;;-8.03;75.75;97456.27;106560;1276;25648;-67
2023/02/13 02:43:01;;;;;;;7.90;4.20;;;;;;;-8.18;75.90;97455.23;106531;1276;24611;-67
2023/02/13 02:45:54;;;;;;;6.30;3.80;;;;;;;-8.16;76.63;97457.23;106628;1276;24778;-67
2023/02/13 02:51:23;;;;;;;9.30;4.50;;;;;;;-8.15;76.31;97465.52;106600;1274;25498;-67
2023/02/13 02:55:05;;;;;;;7.70;3.90;;;;;;;-8.10;76.70;97467.86;106664;1260;26892;-69
2023/02/13 02:56:55;;;;;;;7.00;3.30;;;;;;;-8.06;76.31;97468.70;106647;1276;24280;-67
2023/02/13 03:06:10;;;;;;;9.50;4.40;;;;;;;-8.38;75.84;97490.27;106532;1254;23079;-67
2023/02/13 03:08:14;;;;;;;5.70;2.80;;;;;;;-8.46;76.10;97495.55;106531;1276;25696;-67
2023/02/13 03:13:43;;;;;;;5.40;2.70;;;;;;;-8.52;76.36;97494.21;106513;1276;22716;-67
2023/02/13 03:22:28;;;;;;;4.30;2.50;;;;;;;-8.86;76.88;97502.75;106578;1276;25514;-67
2023/02/13 03:25:32;;;;;;;5.20;2.40;;;;;;;-8.83;76.79;97504.75;106667;1276;24252;-67
2023/02/13 03:31:07;;;;;;;4.80;2.70;;;;;;;-8.72;77.41;97508.02;106595;1276;22598;-67
2023/02/13 03:33:44;;;;;;;6.10;3.00;;;;;;;-8.74;77.78;97509.46;106613;1276;24586;-67
2023/02/13 03:39:16;;;;;;;5.10;2.90;;;;;;;-8.59;77.37;97513.78;106634;1276;24301;-67
2023/02/13 03:41:54;;;;;;;5.60;2.90;;;;;;;-8.66;76.64;97517.09;106610;1276;25564;-67
2023/02/13 03:44:30;;;;;;;3.60;2.10;;;;;;;-8.68;76.85;97523.59;106604;1276;25524;-66
2023/02/13 03:47:02;;;;;;;6.80;2.70;;;;;;;-8.75;76.59;97523.11;106665;1276;22661;-67
2023/02/13 03:52:45;;;;;;;3.80;2.30;;;;;;;-8.79;76.90;97516.33;106653;1276;25227;-67
2023/02/13 04:01:14;;;;;;;6.50;3.10;;;;;;;-9.00;77.42;97510.77;106575;1276;24211;-67
2023/02/13 04:03:48;;;;;;;6.60;3.00;;;;;;;-8.99;78.26;97515.66;106581;1276;22762;-67
2023/02/13 04:06:26;;;;;;;9.00;3.30;;;;;;;-8.93;78.35;97515.83;106662;1276;22743;-67
2023/02/13 04:08:54;;;;;;;7.70;3.20;;;;;;;-8.76;78.42;97516.40;106614;1276;24078;-67
2023/02/13 04:11:49;;;;;;;7.30;3.00;;;;;;;-8.70;77.44;97513.03;106605;1276;25637;-67
2023/02/13 04:14:24;;;;;;;7.20;3.20;;;;;;;-8.75;77.15;97506.41;106681;1276;24252;-67
2023/02/13 04:16:58;;;;;;;5.00;2.30;;;;;;;-8.76;77.13;97507.17;106610;1276;23073;-66
2023/02/13 04:19:27;;;;;;;6.20;3.20;;;;;;;-8.88;76.56;97508.52;106603;1276;22908;-67
2023/02/13 04:21:58;;;;;;;7.00;3.40;;;;;;;-8.90;77.14;97508.70;106656;1276;22694;-68
2023/02/13 04:24:27;;;;;;;8.00;3.60;;;;;;;-8.83;77.51;97503.34;106565;1276;27060;-67
2023/02/13 04:26:55;;;;;;;6.40;2.90;;;;;;;-8.76;77.39;97497.00;106574;1276;22770;-67
2023/02/13 04:29:25;;;;;;;6.90;2.80;;;;;;;-8.88;76.47;97497.30;106604;1276;22596;-67
2023/02/13 04:31:53;;;;;;;15.30;6.80;;;;;;;-9.00;76.85;97498.32;106670;1276;22550;-67
2023/02/13 04:34:21;;;;;;;4.80;3.00;;;;;;;-9.04;77.36;97500.17;106655;1276;25540;-67
2023/02/13 04:36:49;;;;;;;8.30;3.30;;;;;;;-8.91;77.91;97504.17;106626;1276;22585;-67
2023/02/13 04:39:18;;;;;;;9.60;4.40;;;;;;;-8.80;77.59;97508.06;106578;1276;24380;-67
2023/02/13 04:41:46;;;;;;;7.40;3.90;;;;;;;-8.79;77.42;97504.23;106642;1276;22632;-67
2023/02/13 04:44:14;;;;;;;5.60;3.60;;;;;;;-8.73;77.31;97506.92;106551;1273;22607;-67
2023/02/13 04:46:42;;;;;;;10.60;5.10;;;;;;;-8.77;77.13;97515.02;106604;1276;22781;-67
2023/02/13 04:49:10;;;;;;;38.10;18.40;;;;;;;-8.88;76.05;97513.30;106616;1276;22917;-67
2023/02/13 04:51:38;;;;;;;24.40;10.10;;;;;;;-9.05;75.90;97513.58;106540;1254;23089;-67
2023/02/13 04:54:06;;;;;;;16.30;8.30;;;;;;;-9.15;77.16;97512.56;106585;1276;24256;-67
2023/02/13 04:56:34;;;;;;;5.10;2.50;;;;;;;-9.18;77.36;97512.92;106617;1276;22779;-67
2023/02/13 04:59:02;;;;;;;8.70;3.70;;;;;;;-9.10;77.38;97510.17;106749;1276;25715;-67
2023/02/13 05:01:31;;;;;;;7.00;3.30;;;;;;;-9.04;77.54;97514.01;106588;1260;24212;-67
2023/02/13 05:03:59;;;;;;;7.70;3.30;;;;;;;-9.01;77.50;97515.80;106620;1276;22928;-67
2023/02/13 05:06:27;;;;;;;8.00;3.70;;;;;;;-9.09;76.72;97520.02;106620;1276;22785;-67
2023/02/13 05:08:55;;;;;;;4.40;2.80;;;;;;;-9.18;76.64;97522.19;106145;1276;663603;-67
2023/02/13 05:11:23;;;;;;;6.60;3.40;;;;;;;-9.23;76.84;97525.44;106617;1276;24425;-67
2023/02/13 05:13:51;;;;;;;5.20;2.10;;;;;;;-9.17;77.24;97528.02;106610;1276;23011;-67
2023/02/13 05:16:19;;;;;;;5.10;2.40;;;;;;;-9.21;76.84;97528.52;106632;1276;22714;-67
2023/02/13 05:18:48;;;;;;;6.70;2.20;;;;;;;-9.27;76.79;97532.25;106585;1276;25607;-67
2023/02/13 05:24:03;;;;;;;5.00;2.50;;;;;;;-9.21;77.31;97539.81;106622;1276;25612;-66
2023/02/13 05:26:31;;;;;;;6.30;3.10;;;;;;;-9.13;77.47;97544.41;106507;1276;22594;-67
2023/02/13 05:29:18;;;;;;;5.20;2.40;;;;;;;-9.11;77.51;97549.16;106628;1276;22736;-67
2023/02/13 05:31:48;;;;;;;6.00;2.50;;;;;;;-9.13;76.90;97551.09;106640;1276;24201;-67
2023/02/13 05:34:17;;;;;;;3.90;2.40;;;;;;;-9.09;77.43;97548.15;106635;1276;25492;-67
2023/02/13 05:36:45;;;;;;;8.00;3.10;;;;;;;-9.08;77.00;97548.73;106534;1276;24273;-67
2023/02/13 05:39:14;;;;;;;6.80;3.00;;;;;;;-9.12;76.74;97548.88;106656;1271;24177;-67
2023/02/13 05:41:43;;;;;;;8.80;3.60;;;;;;;-9.09;77.09;97540.30;106562;1276;24001;-67
2023/02/13 05:44:12;;;;;;;5.20;2.70;;;;;;;-9.09;76.91;97536.52;106603;1276;22650;-67
2023/02/13 05:46:42;;;;;;;9.30;4.40;;;;;;;-9.08;77.19;97536.86;106657;1276;22929;-67
2023/02/13 05:49:12;;;;;;;36.00;15.50;;;;;;;-8.99;77.40;97535.73;106626;1276;25621;-66
2023/02/13 05:51:42;;;;;;;38.30;16.20;;;;;;;-8.93;77.33;97537.77;106663;1276;24243;-67
2023/02/13 05:54:10;;;;;;;7.70;4.10;;;;;;;-8.93;76.89;97533.73;106550;1276;26759;-67
2023/02/13 05:56:38;;;;;;;42.60;18.60;;;;;;;-8.93;77.16;97539.36;106558;1276;25528;-67
2023/02/13 05:59:06;;;;;;;42.20;18.30;;;;;;;-8.79;77.49;97540.35;106660;1276;23599;-67
2023/02/13 06:01:35;;;;;;;13.50;5.10;;;;;;;-8.65;77.36;97547.88;106596;1276;22592;-67
2023/02/13 06:04:03;;;;;;;7.00;3.20;;;;;;;-8.66;76.51;97547.42;106529;1267;24303;-67
2023/02/13 06:06:31;;;;;;;7.90;3.40;;;;;;;-8.75;76.24;97545.54;106643;1276;22562;-67
2023/02/13 06:08:59;;;;;;;26.20;12.10;;;;;;;-8.90;76.02;97552.23;106620;1276;22575;-67
2023/02/13 06:11:27;;;;;;;45.90;18.80;;;;;;;-9.00;75.91;97550.49;106493;1276;22568;-67
2023/02/13 06:13:55;;;;;;;8.50;4.60;;;;;;;-9.06;75.93;97549.77;106582;1276;22568;-67
2023/02/13 06:16:24;;;;;;;5.90;3.20;;;;;;;-9.02;76.70;97548.98;106623;1276;24388;-67
2023/02/13 06:18:52;;;;;;;9.10;4.30;;;;;;;-8.86;77.17;97548.95;106619;1276;22594;-66
2023/02/13 06:21:20;;;;;;;10.30;4.30;;;;;;;-8.72;77.39;97543.15;106625;1276;22741;-67
2023/02/13 06:23:49;;;;;;;7.40;3.90;;;;;;;-8.58;77.15;97542.36;106645;1276;25531;-67
2023/02/13 06:26:18;;;;;;;5.20;3.20;;;;;;;-8.53;76.57;97535.47;106644;1276;22657;-66
2023/02/13 06:28:46;;;;;;;5.90;3.20;;;;;;;-8.48;76.68;97537.86;106549;1276;22689;-67
2023/02/13 06:31:14;;;;;;;8.20;4.20;;;;;;;-8.45;76.56;97531.79;106541;1273;22663;-67
2023/02/13 06:33:42;;;;;;;78.60;27.30;;;;;;;-8.36;76.67;97532.06;106607;1276;24387;-67
2023/02/13 06:36:10;;;;;;;18.20;7.70;;;;;;;-8.25;76.56;97532.11;106574;1276;25563;-67
2023/02/13 06:38:38;;;;;;;7.60;3.40;;;;;;;-8.27;76.30;97531.92;106607;1276;22654;-66
2023/02/13 06:41:06;;;;;;;9.60;4.40;;;;;;;-8.32;76.16;97530.05;106602;1276;25664;-67
2023/02/13 06:43:35;;;;;;;35.80;16.00;;;;;;;-8.33;76.27;97532.52;106572;1276;25675;-67
2023/02/13 06:46:07;;;;;;;51.90;20.60;;;;;;;-8.27;76.88;97534.55;106600;1276;22619;-67
2023/02/13 06:48:35;;;;;;;8.80;3.50;;;;;;;-8.17;76.61;97535.84;106653;1276;25493;-67
2023/02/13 06:51:03;;;;;;;9.00;3.30;;;;;;;-8.18;76.25;97531.36;106621;1276;26876;-67
2023/02/13 06:53:31;;;;;;;9.60;4.20;;;;;;;-8.08;76.59;97530.45;106598;1276;22582;-67
2023/02/13 06:56:05;;;;;;;7.40;3.40;;;;;;;-7.98;76.29;97521.91;106595;1276;24243;-67
2023/02/13 06:58:33;;;;;;;25.90;11.00;;;;;;;-8.00;75.91;97521.05;106602;1276;22592;-67
2023/02/13 07:01:01;;;;;;;42.50;18.70;;;;;;;-8.05;76.04;97524.77;106614;1276;24430;-67
2023/02/13 07:03:29;;;;;;;29.40;12.20;;;;;;;-7.97;76.73;97528.47;106602;1276;23958;-67
2023/02/13 07:05:57;;;;;;;28.70;13.60;;;;;;;-7.90;76.13;97521.88;106559;1276;22607;-67
2023/02/13 07:08:26;;;;;;;51.00;20.50;;;;;;;-7.84;76.23;97524.07;106556;1276;25515;-67
2023/02/13 07:10:54;;;;;;;54.90;24.00;;;;;;;-7.66;76.66;97526.90;106609;1276;22602;-67
2023/02/13 07:13:23;;;;;;;71.80;32.40;;;;;;;-7.54;76.25;97522.08;106582;1276;24010;-67
2023/02/13 07:15:51;;;;;;;72.30;33.10;;;;;;;-7.39;76.05;97514.76;106620;1253;23078;-67
2023/02/13 07:18:19;;;;;;;29.20;14.40;;;;;;;-7.20;76.10;97513.05;106598;1276;24340;-67
2023/02/13 07:20:48;;;;;;;49.80;23.00;;;;;;;-6.98;75.77;97508.45;106559;1276;25622;-67
2023/02/13 07:23:16;;;;;;;42.40;20.50;;;;;;;-6.81;75.91;97501.57;106556;1276;22615;-67
2023/02/13 07:25:44;;;;;;;37.20;19.40;;;;;;;-6.59;76.11;97499.88;106599;1254;22883;-67
2023/02/13 07:28:12;;;;;;;28.40;15.80;;;;;;;-6.27;75.40;97495.31;106605;1276;22666;-67
2023/02/13 07:30:40;;;;;;;40.50;18.70;;;;;;;-5.96;74.63;97493.19;106660;1276;24267;-67
2023/02/13 07:33:09;;;;;;;35.00;16.70;;;;;;;-5.72;73.20;97487.05;106493;1276;22616;-67
2023/02/13 07:35:48;;;;;;;44.90;21.20;;;;;;;-5.49;72.10;97489.76;106582;1270;25584;-67
2023/02/13 07:38:17;;;;;;;42.80;21.20;;;;;;;-5.17;72.49;97486.23;106542;1276;22827;-65
2023/02/13 07:40:45;;;;;;;38.70;19.70;;;;;;;-4.85;72.54;97485.44;106677;1276;22753;-66
2023/02/13 07:43:13;;;;;;;36.80;17.60;;;;;;;-4.61;70.56;97484.76;106542;1276;24185;-66
2023/02/13 07:45:41;;;;;;;33.80;15.90;;;;;;;-4.40;69.16;97481.73;106569;1276;24263;-65
2023/02/13 07:48:10;;;;;;;29.30;14.10;;;;;;;-4.21;69.55;97478.88;106576;1276;22675;-66
2023/02/13 07:50:38;;;;;;;29.10;14.40;;;;;;;-4.01;69.44;97480.64;106553;1276;22538;-66
2023/02/13 07:53:06;;;;;;;27.80;13.80;;;;;;;-3.82;68.94;97481.52;106522;1276;25396;-66
2023/02/13 07:55:35;;;;;;;24.90;12.80;;;;;;;-3.70;68.48;97479.78;106490;1276;22804;-66
2023/02/13 07:58:04;;;;;;;24.90;13.00;;;;;;;-3.54;68.33;97479.24;106576;1276;25517;-66
2023/02/13 08:00:32;;;;;;;28.10;13.70;;;;;;;-3.39;68.00;97473.16;106574;1276;22540;-66
2023/02/13 08:03:01;;;;;;;25.30;13.30;;;;;;;-3.29;67.59;97475.05;106546;1276;23901;-66
2023/02/13 08:05:31;;;;;;;23.40;12.90;;;;;;;-3.12;67.67;97473.21;106612;1276;22517;-66
2023/02/13 08:07:59;;;;;;;26.70;13.20;;;;;;;-2.99;66.98;97474.89;106550;1276;23241;-66
2023/02/13 08:13:15;;;;;;;33.10;18.00;;;;;;;-2.69;66.85;97470.91;106580;1276;22543;-66
2023/02/13 08:15:44;;;;;;;35.30;17.20;;;;;;;-2.56;66.53;97465.40;106634;1276;25449;-66
2023/02/13 08:18:12;;;;;;;38.40;19.50;;;;;;;-2.47;65.80;97472.11;106541;1276;22534;-66
2023/02/13 08:20:40;;;;;;;32.20;17.40;;;;;;;-2.35;66.77;97476.98;106551;1276;25545;-66
2023/02/13 08:23:10;;;;;;;27.80;15.80;;;;;;;-2.16;66.79;97479.01;106490;1276;24381;-65
2023/02/13 08:25:39;;;;;;;31.00;17.50;;;;;;;-2.01;66.54;97478.68;106559;1276;22615;-66
2023/02/13 08:28:07;;;;;;;30.20;15.30;;;;;;;-1.93;65.43;97476.79;106599;1276;22657;-66
2023/02/13 08:30:36;;;;;;;34.60;16.90;;;;;;;-1.89;64.92;97477.48;106582;1276;25540;-66
2023/02/13 08:33:04;;;;;;;32.40;15.80;;;;;;;-1.78;65.46;97479.05;106553;1276;22466;-66
2023/02/13 08:35:32;;;;;;;30.00;15.10;;;;;;;-1.61;64.40;97482.31;106566;1276;22521;-66
2023/02/13 08:38:02;;;;;;;29.00;15.50;;;;;;;-1.44;63.59;97476.70;106551;1276;22733;-66
2023/02/13 08:40:31;;;;;;;25.30;14.00;;;;;;;-1.33;63.34;97469.25;106697;1276;25491;-66
2023/02/13 08:43:05;;;;;;;22.40;12.50;;;;;;;-1.18;62.67;97465.75;106598;1276;23622;-66
2023/02/13 08:45:34;;;;;;;20.50;10.90;;;;;;;-1.03;61.99;97465.55;106562;1276;22524;-66
2023/02/13 08:48:02;;;;;;;59.50;33.80;;;;;;;-0.84;62.49;97463.67;106762;1276;25226;-66
2023/02/13 08:50:31;;;;;;;23.70;12.00;;;;;;;-0.64;61.44;97453.73;106805;1276;22526;-66
2023/02/13 08:52:59;;;;;;;22.80;13.30;;;;;;;-0.46;59.71;97453.98;106755;1276;24311;-66
2023/02/13 08:55:30;;;;;;;47.40;26.70;;;;;;;-0.28;59.95;97453.05;106733;1276;24200;-66
2023/02/13 08:58:00;;;;;;;39.40;21.40;;;;;;;-0.08;60.50;97448.75;106641;1276;23098;-66
2023/02/13 09:00:29;;;;;;;28.60;17.60;;;;;;;0.15;61.50;97447.88;106561;1276;24204;-66
2023/02/13 09:03:01;;;;;;;23.40;14.20;;;;;;;0.40;61.73;97449.30;106541;1276;22529;-66
2023/02/13 09:05:31;;;;;;;27.70;15.10;;;;;;;0.63;61.75;97450.83;106640;1276;22613;-66
2023/02/13 09:08:02;;;;;;;27.80;14.90;;;;;;;0.79;61.97;97451.42;106621;1276;25226;-67
2023/02/13 09:10:31;;;;;;;29.70;16.40;;;;;;;0.92;61.65;97450.50;106562;1276;23155;-66
2023/02/13 09:13:00;;;;;;;25.80;13.70;;;;;;;1.03;61.66;97445.65;106584;1276;22543;-67
2023/02/13 09:15:29;;;;;;;29.00;15.80;;;;;;;1.10;61.28;97445.45;106774;1276;22559;-67
2023/02/13 09:17:57;;;;;;;31.80;17.20;;;;;;;1.22;61.14;97443.25;106830;1276;22781;-67
